Time;durP1;ratioP1;P1;durP2;ratioP2;P2;SDS_P1;SDS_P2;PMS_P1;PMS_P2;Temp;Humidity;BMP_temperature;BMP_pressure;BME280_temperature;BME280_humidity;BME280_pressure;Samples;Min_cycle;Max_cycle;Signal;HPM_P1;HPM_P2
2023/06/16 00:01:08;;;;;;;;;;;23.30;45.00;;;23.45;33.23;98646.28;5009051;27;112891;-75
2023/06/16 00:03:37;;;;;;;;;;;23.20;45.10;;;23.43;33.15;98651.50;5018098;27;125132;-75
2023/06/16 00:06:12;;;;;;;;;;;23.20;45.00;;;23.38;33.40;98650.72;5028693;28;123094;-76
2023/06/16 00:08:40;;;;;;;;;;;23.20;45.20;;;23.33;33.25;98645.47;5028326;28;114405;-75
2023/06/16 00:11:06;;;;;;;;;;;23.10;45.20;;;23.32;33.33;98645.84;5032826;28;113998;-75
2023/06/16 00:13:35;;;;;;;;;;;23.10;45.30;;;23.30;33.45;98646.28;5027871;28;124245;-76
2023/06/16 00:16:02;;;;;;;;;;;23.10;45.40;;;23.28;33.13;98648.69;5029611;28;124861;-75
2023/06/16 00:18:29;;;;;;;;;;;23.10;45.60;;;23.27;33.63;98649.09;5014433;28;113929;-76
2023/06/16 00:20:57;;;;;;;;;;;23.10;45.60;;;23.24;33.63;98653.53;5032125;28;112479;-76
2023/06/16 00:23:24;;;;;;;;;;;23.00;45.70;;;23.20;33.76;98649.88;5029160;28;123504;-75
2023/06/16 00:25:50;;;;;;;;;;;23.00;45.80;;;23.17;33.74;98649.88;5029151;28;123259;-76
2023/06/16 00:28:16;;;;;;;;;;;23.00;45.90;;;23.14;33.77;98655.13;5029502;28;115011;-75
2023/06/16 00:30:43;;;;;;;;;;;22.90;45.90;;;23.12;33.98;98653.91;5027872;27;114729;-75
2023/06/16 00:33:10;;;;;;;;;;;22.90;46.00;;;23.08;33.89;98656.72;5027801;28;123972;-75
2023/06/16 00:35:36;;;;;;;;;;;22.80;46.20;;;23.00;33.77;98660.75;5027221;28;124013;-76
2023/06/16 00:38:04;;;;;;;;;;;22.80;46.10;;;22.94;33.98;98656.66;5028745;28;113234;-77
2023/06/16 00:40:31;;;;;;;;;;;22.80;46.20;;;22.93;34.41;98652.22;5027743;28;113787;-76
2023/06/16 00:43:01;;;;;;;;;;;22.70;46.20;;;22.90;34.24;98655.84;5028857;28;124643;-76
2023/06/16 00:45:31;;;;;;;;;;;22.70;46.30;;;22.88;34.44;98656.22;5030712;28;124556;-76
2023/06/16 00:48:00;;;;;;;;;;;22.70;46.40;;;22.85;34.43;98659.06;5030506;27;112717;-76
2023/06/16 00:50:27;;;;;;;;;;;22.60;46.40;;;22.81;34.41;98659.06;5027288;28;113882;-75
2023/06/16 00:52:54;;;;;;;;;;;22.60;46.60;;;22.79;34.49;98652.19;5028524;28;124277;-76
2023/06/16 00:55:23;;;;;;;;;;;22.60;46.80;;;22.78;34.79;98650.56;5030112;28;123564;-76
2023/06/16 00:57:53;;;;;;;;;;;22.60;47.00;;;22.75;34.94;98652.16;5028730;28;113630;-76
2023/06/16 01:00:20;;;;;;;;;;;22.60;47.10;;;22.71;34.96;98651.38;5026842;27;113627;-75
2023/06/16 01:02:50;;;;;;;;;;;22.50;47.10;;;22.68;35.25;98649.34;5025791;27;124806;-75
2023/06/16 01:05:19;;;;;;;;;;;22.50;47.30;;;22.65;35.15;98647.34;5027000;28;124021;-77
2023/06/16 01:08:04;;;;;;;;;;;22.40;47.30;;;22.62;35.09;98651.75;5027055;28;114501;-76
2023/06/16 01:10:49;;;;;;;;;;;22.40;47.50;;;22.59;35.26;98646.09;5013539;28;112924;-76
2023/06/16 01:13:34;;;;;;;;;;;22.40;47.70;;;22.54;35.54;98650.13;5028405;28;124054;-76
2023/06/16 01:16:02;;;;;;;;;;;22.30;47.80;;;22.49;35.97;98642.03;5028693;28;123769;-76
2023/06/16 01:18:29;;;;;;;;;;;22.30;48.00;;;22.45;36.02;98644.81;5012560;28;114968;-76
2023/06/16 01:21:12;;;;;;;;;;;22.30;48.20;;;22.40;35.94;98650.84;5033885;27;114699;-75
2023/06/16 01:24:17;;;;;;;;;;;22.20;48.40;;;22.36;36.23;98644.41;5023588;27;123333;-75
2023/06/16 01:26:49;;;;;;;;;;;22.20;48.50;;;22.34;36.14;98651.63;5029498;27;124059;-75
2023/06/16 01:29:20;;;;;;;;;;;22.20;48.80;;;22.33;36.18;98650.81;5034033;27;114427;-74
2023/06/16 01:31:49;;;;;;;;;;;22.10;48.90;;;22.30;36.69;98648.81;5032782;27;113873;-74
2023/06/16 01:34:16;;;;;;;;;;;22.10;49.20;;;22.29;36.76;98650.00;5042877;27;124263;-74
2023/06/16 01:36:43;;;;;;;;;;;22.10;49.20;;;22.27;36.89;98646.75;5037636;27;123998;-74
2023/06/16 01:39:11;;;;;;;;;;;22.10;49.40;;;22.25;36.83;98637.91;5029178;27;114667;-73
2023/06/16 01:41:40;;;;;;;;;;;22.00;49.40;;;22.24;37.04;98639.09;5033634;27;112054;-74
2023/06/16 01:44:06;;;;;;;;;;;22.00;49.40;;;22.22;36.57;98647.16;5031295;27;124058;-74
2023/06/16 01:46:33;;;;;;;;;;;22.00;49.50;;;22.19;36.77;98647.91;5036595;27;123188;-74
2023/06/16 01:49:00;;;;;;;;;;;22.00;49.60;;;22.16;37.10;98645.88;5041437;27;114351;-75
2023/06/16 01:51:28;;;;;;;;;;;21.90;49.60;;;22.14;37.09;98639.81;5028520;27;113703;-74
2023/06/16 01:53:56;;;;;;;;;;;21.90;49.70;;;22.11;37.19;98635.81;5034338;27;124116;-75
2023/06/16 01:56:25;;;;;;;;;;;21.90;49.70;;;22.08;37.25;98636.56;5029010;27;123908;-75
2023/06/16 01:58:51;;;;;;;;;;;21.90;49.80;;;22.04;37.28;98642.19;5036115;27;114615;-74
2023/06/16 02:01:29;;;;;;;;;;;21.80;49.80;;;22.01;37.49;98640.16;5017984;27;111841;-74
2023/06/16 02:04:01;;;;;;;;;;;21.80;49.90;;;21.98;37.56;98646.59;5032074;27;124193;-74
2023/06/16 02:06:37;;;;;;;;;;;21.80;50.10;;;21.94;37.54;98653.38;5047467;27;123609;-75
2023/06/16 02:09:04;;;;;;;;;;;21.80;50.10;;;21.92;37.20;98650.16;5046980;27;115284;-75
2023/06/16 02:11:31;;;;;;;;;;;21.70;50.10;;;21.88;37.27;98647.31;5042563;27;115291;-74
2023/06/16 02:14:00;;;;;;;;;;;21.70;50.20;;;21.86;37.54;98657.34;5039150;27;124748;-75
2023/06/16 02:16:26;;;;;;;;;;;21.70;50.20;;;21.83;37.44;98650.50;5031488;27;123215;-74
2023/06/16 02:18:53;;;;;;;;;;;21.60;50.30;;;21.76;37.13;98644.81;5046640;27;114120;-76
2023/06/16 02:21:21;;;;;;;;;;;21.50;50.20;;;21.69;37.52;98656.03;5046284;27;113823;-75
2023/06/16 02:23:47;;;;;;;;;;;21.50;50.30;;;21.62;38.05;98651.94;5032595;27;124424;-75
2023/06/16 02:26:13;;;;;;;;;;;21.40;50.50;;;21.54;37.80;98667.16;5044420;27;124262;-74
2023/06/16 02:28:40;;;;;;;;;;;21.40;50.50;;;21.44;38.00;98659.47;5031855;27;114315;-74
2023/06/16 02:31:06;;;;;;;;;;;21.30;50.50;;;21.35;38.23;98670.19;5035251;27;113716;-74
2023/06/16 02:33:32;;;;;;;;;;;21.20;50.70;;;21.24;38.44;98660.84;5048519;27;123186;-75
2023/06/16 02:35:58;;;;;;;;;;;21.10;50.70;;;21.17;38.22;98676.47;5046573;27;124530;-77
2023/06/16 02:38:25;;;;;;;;;;;21.10;50.80;;;21.14;38.79;98673.59;5043629;27;114338;-75
2023/06/16 02:40:51;;;;;;;;;;;21.00;51.00;;;21.13;38.86;98669.97;5033418;27;113791;-78
2023/06/16 02:43:18;;;;;;;;;;;21.00;51.20;;;21.09;38.99;98669.16;5030809;27;124678;-83
2023/06/16 02:45:45;;;;;;;;;;;21.00;51.60;;;21.06;39.12;98669.91;5029673;27;122868;-79
2023/06/16 02:48:11;;;;;;;;;;;20.90;51.50;;;21.05;38.96;98675.91;5035552;27;114252;-77
2023/06/16 02:50:38;;;;;;;;;;;20.90;51.70;;;21.05;39.23;98670.31;5039222;27;112962;-75
2023/06/16 02:53:05;;;;;;;;;;;20.90;51.80;;;21.04;39.24;98672.31;5018267;27;123114;-76
2023/06/16 02:55:31;;;;;;;;;;;20.90;51.90;;;21.06;38.94;98675.53;5036745;27;124024;-77
2023/06/16 02:57:59;;;;;;;;;;;20.90;52.00;;;21.08;38.82;98672.34;5031036;27;115326;-75
2023/06/16 03:00:25;;;;;;;;;;;20.90;52.00;;;21.10;39.15;98675.56;5049245;27;114673;-75
2023/06/16 03:02:52;;;;;;;;;;;20.90;52.10;;;21.11;39.00;98665.94;5036220;27;124080;-76
2023/06/16 03:05:18;;;;;;;;;;;20.90;52.10;;;21.13;39.20;98675.59;5035427;27;122789;-76
2023/06/16 03:07:46;;;;;;;;;;;20.90;52.10;;;21.14;39.08;98667.97;5031316;27;114575;-75
2023/06/16 03:10:13;;;;;;;;;;;20.90;52.10;;;21.13;38.80;98675.59;5046180;27;113704;-76
2023/06/16 03:12:39;;;;;;;;;;;20.90;52.10;;;21.12;39.10;98676.00;5035930;27;124241;-76
2023/06/16 03:15:06;;;;;;;;;;;20.90;52.10;;;21.11;38.86;98665.94;5036738;27;123206;-76
2023/06/16 03:17:33;;;;;;;;;;;20.80;52.00;;;21.09;38.92;98676.75;5024597;27;113515;-75
2023/06/16 03:20:04;;;;;;;;;;;20.80;52.00;;;21.09;39.34;98679.56;5035713;27;113844;-76
2023/06/16 03:22:30;;;;;;;;;;;20.80;52.10;;;21.09;39.36;98677.59;5041751;27;124223;-75
2023/06/16 03:25:02;;;;;;;;;;;20.80;52.20;;;21.08;39.24;98678.75;5044189;27;124019;-78
2023/06/16 03:27:31;;;;;;;;;;;20.80;52.30;;;21.07;39.32;98674.34;5041996;27;116072;-77
2023/06/16 03:30:00;;;;;;;;;;;20.80;52.30;;;21.06;39.05;98678.31;5047301;27;113641;-76
2023/06/16 03:32:27;;;;;;;;;;;20.80;52.30;;;21.02;39.37;98677.50;5033682;27;124353;-77
2023/06/16 03:34:55;;;;;;;;;;;20.80;52.50;;;20.95;39.08;98671.78;5043884;27;124094;-75
2023/06/16 03:37:22;;;;;;;;;;;20.70;52.30;;;20.91;39.49;98680.19;5031454;27;114596;-79
2023/06/16 03:39:48;;;;;;;;;;;20.70;52.40;;;20.91;39.52;98685.00;5048164;27;113997;-76
2023/06/16 03:42:14;;;;;;;;;;;20.70;52.30;;;20.91;39.36;98685.00;5040710;27;124075;-78
2023/06/16 03:44:43;;;;;;;;;;;20.70;52.30;;;20.91;39.34;98680.19;5051860;27;123950;-76
2023/06/16 03:47:09;;;;;;;;;;;20.70;52.40;;;20.93;39.19;98682.63;5030672;27;115739;-77
2023/06/16 03:49:35;;;;;;;;;;;20.70;52.50;;;20.95;39.45;98680.22;5027898;28;113672;-76
2023/06/16 03:52:02;;;;;;;;;;;20.70;52.60;;;20.96;39.60;98681.84;5041750;27;124299;-75
2023/06/16 03:54:29;;;;;;;;;;;20.70;52.70;;;20.99;39.49;98683.88;5049585;27;124640;-77
2023/06/16 03:56:57;;;;;;;;;;;20.70;52.60;;;20.96;39.43;98685.47;5035592;27;114325;-76
2023/06/16 03:59:24;;;;;;;;;;;20.70;52.60;;;20.94;39.30;98676.59;5039119;27;113487;-76
2023/06/16 04:01:51;;;;;;;;;;;20.60;52.60;;;20.96;39.38;98693.09;5030031;27;125379;-76
2023/06/16 04:04:17;;;;;;;;;;;20.60;52.70;;;20.96;39.47;98690.28;5026033;28;124119;-76
2023/06/16 04:06:43;;;;;;;;;;;20.60;52.70;;;20.97;39.69;98686.28;5023489;28;114079;-75
2023/06/16 04:09:11;;;;;;;;;;;20.60;52.60;;;20.98;39.36;98679.44;5029159;28;114088;-76
2023/06/16 04:11:40;;;;;;;;;;;20.60;52.70;;;21.02;39.23;98694.34;5026724;27;124772;-77
2023/06/16 04:14:09;;;;;;;;;;;20.60;52.80;;;21.02;39.78;98685.94;5026943;27;123792;-76
2023/06/16 04:16:37;;;;;;;;;;;20.70;52.90;;;21.03;39.33;98684.72;5030024;28;113971;-75
2023/06/16 04:19:06;;;;;;;;;;;20.70;52.80;;;21.04;39.32;98694.78;5029381;28;113814;-75
2023/06/16 04:21:33;;;;;;;;;;;20.70;52.80;;;21.04;39.69;98686.34;5028567;28;123987;-78
2023/06/16 04:24:00;;;;;;;;;;;20.70;52.90;;;21.05;39.61;98685.16;5029474;28;124109;-78
2023/06/16 04:26:28;;;;;;;;;;;20.70;52.90;;;21.08;39.51;98690.00;5027755;28;115017;-77
2023/06/16 04:29:00;;;;;;;;;;;20.70;52.90;;;21.03;39.23;98693.16;5042414;27;114393;-76
2023/06/16 04:31:29;;;;;;;;;;;20.70;52.80;;;20.93;39.50;98705.09;5045211;27;124313;-76
2023/06/16 04:33:58;;;;;;;;;;;20.70;52.90;;;20.89;39.59;98696.63;5041248;27;123910;-75
2023/06/16 04:36:25;;;;;;;;;;;20.70;52.90;;;20.91;39.57;98702.66;5031349;27;115074;-75
2023/06/16 04:38:53;;;;;;;;;;;20.60;52.80;;;20.91;39.83;98696.25;5044794;27;114923;-75
2023/06/16 04:41:19;;;;;;;;;;;20.60;53.10;;;20.90;39.57;98705.84;5031984;27;123737;-75
2023/06/16 04:43:45;;;;;;;;;;;20.60;53.10;;;20.87;39.58;98695.38;5036380;27;124291;-76
2023/06/16 04:46:12;;;;;;;;;;;20.60;53.10;;;20.87;39.76;98690.56;5040780;27;113198;-76
2023/06/16 04:48:38;;;;;;;;;;;20.60;53.00;;;20.89;39.73;98698.63;5041027;27;113793;-78
2023/06/16 04:51:04;;;;;;;;;;;20.60;53.10;;;20.88;39.67;98699.81;5041921;27;124791;-76
2023/06/16 04:53:31;;;;;;;;;;;20.60;53.00;;;20.93;39.97;98696.69;5045622;27;124523;-78
2023/06/16 04:55:59;;;;;;;;;;;20.60;53.30;;;20.99;39.77;98694.31;5045976;27;114346;-77
2023/06/16 04:58:25;;;;;;;;;;;20.60;53.30;;;21.03;39.55;98681.91;5032925;27;112885;-76
2023/06/16 05:00:51;;;;;;;;;;;20.70;53.40;;;21.08;39.84;98687.19;5034514;27;124534;-76
2023/06/16 05:03:18;;;;;;;;;;;20.70;53.20;;;21.13;39.46;98686.84;5031031;27;124491;-76
2023/06/16 05:05:46;;;;;;;;;;;20.70;53.20;;;21.17;39.62;98681.25;5021092;27;114606;-76
2023/06/16 05:08:12;;;;;;;;;;;20.80;53.30;;;21.22;39.32;98682.91;5026862;27;113949;-75
2023/06/16 05:10:40;;;;;;;;;;;20.80;53.30;;;21.24;39.48;98680.53;5030985;27;124259;-76
2023/06/16 05:13:06;;;;;;;;;;;20.80;53.10;;;21.25;39.23;98688.56;5043029;27;124020;-76
2023/06/16 05:15:32;;;;;;;;;;;20.80;53.00;;;21.30;39.20;98691.00;5032349;27;114903;-76
2023/06/16 05:17:58;;;;;;;;;;;21.40;53.40;;;21.33;39.34;98678.19;5038015;27;113668;-75
2023/06/16 05:20:25;;;;;;;;;;;20.90;53.10;;;21.39;39.25;98685.13;5040871;27;125579;-76
2023/06/16 05:22:51;;;;;;;;;;;20.90;53.00;;;21.42;38.79;98692.78;5038478;27;123525;-75
2023/06/16 05:25:17;;;;;;;;;;;21.00;52.90;;;21.48;39.34;98687.59;5047213;27;115196;-75
2023/06/16 05:27:44;;;;;;;;;;;21.00;52.90;;;21.55;39.27;98690.47;5047260;27;114556;-74
2023/06/16 05:30:10;;;;;;;;;;;21.10;53.00;;;21.56;38.74;98686.47;5034693;27;124086;-74
2023/06/16 05:32:37;;;;;;;;;;;21.10;52.70;;;21.58;38.53;98689.69;5024854;28;124708;-76
2023/06/16 05:35:06;;;;;;;;;;;21.10;52.50;;;21.59;38.52;98683.66;5021838;28;114880;-74
2023/06/16 05:37:32;;;;;;;;;;;21.20;52.50;;;21.64;38.55;98695.75;5026470;28;113756;-74
2023/06/16 05:39:59;;;;;;;;;;;21.20;52.40;;;21.69;38.13;98695.41;5024265;27;124184;-74
2023/06/16 05:42:25;;;;;;;;;;;21.20;52.30;;;21.74;38.30;98697.88;5011368;28;122851;-73
2023/06/16 05:44:51;;;;;;;;;;;21.30;52.30;;;21.78;38.32;98693.84;5029055;28;115026;-75
2023/06/16 05:47:18;;;;;;;;;;;21.30;52.40;;;21.81;38.46;98690.25;5027964;28;113754;-75
2023/06/16 05:49:44;;;;;;;;;;;21.30;52.40;;;21.82;38.59;98694.69;5025071;28;124444;-75
2023/06/16 05:52:10;;;;;;;;;;;21.30;52.70;;;21.82;38.66;98699.53;5025412;28;123865;-75
2023/06/16 05:54:37;;;;;;;;;;;21.30;52.70;;;21.85;38.65;98698.75;5007296;28;115283;-74
2023/06/16 05:57:08;;;;;;;;;;;21.30;52.60;;;21.91;38.54;98696.38;5025100;28;114096;-74
2023/06/16 05:59:36;;;;;;;;;;;21.40;52.70;;;21.96;38.42;98698.81;5029054;28;123957;-74
2023/06/16 06:02:03;;;;;;;;;;;21.50;52.80;;;22.02;38.60;98700.06;5025812;28;123880;-75
2023/06/16 06:04:31;;;;;;;;;;;21.50;52.70;;;22.07;38.53;98699.69;5030417;27;114002;-75
2023/06/16 06:06:57;;;;;;;;;;;21.60;52.70;;;22.13;38.16;98702.94;5027296;28;113879;-75
2023/06/16 06:09:24;;;;;;;;;;;21.60;52.60;;;22.17;38.13;98704.59;5019151;27;124448;-77
2023/06/16 06:11:53;;;;;;;;;;;21.70;52.70;;;22.22;38.05;98703.44;5006896;28;123041;-75
2023/06/16 06:14:21;;;;;;;;;;;21.70;52.50;;;22.28;38.06;98699.84;5027131;28;115337;-74
2023/06/16 06:16:49;;;;;;;;;;;21.80;52.50;;;22.33;37.98;98701.50;5023687;28;113619;-75
2023/06/16 06:19:15;;;;;;;;;;;21.80;52.40;;;22.39;38.17;98704.75;5017002;28;124041;-75
2023/06/16 06:21:42;;;;;;;;;;;21.90;52.40;;;22.46;37.98;98714.03;5026542;28;123831;-76
2023/06/16 06:24:12;;;;;;;;;;;21.90;52.30;;;22.54;37.80;98705.59;5013006;28;114462;-75
2023/06/16 06:26:38;;;;;;;;;;;22.00;52.10;;;22.60;37.42;98709.69;5011325;28;114217;-75
2023/06/16 06:29:05;;;;;;;;;;;22.10;52.00;;;22.66;37.23;98717.34;5016148;27;124671;-75
2023/06/16 06:31:32;;;;;;;;;;;22.10;51.90;;;22.68;37.29;98717.75;4994962;28;123625;-75
2023/06/16 06:33:58;;;;;;;;;;;22.10;51.70;;;22.73;37.40;98722.19;5018263;28;113923;-75
2023/06/16 06:36:28;;;;;;;;;;;22.20;51.50;;;22.80;37.37;98718.59;5009855;27;113843;-77
2023/06/16 06:38:59;;;;;;;;;;;22.30;51.50;;;22.87;36.92;98721.44;5011218;27;123709;-77
2023/06/16 06:41:26;;;;;;;;;;;22.30;51.40;;;22.96;36.44;98726.69;5011320;27;124241;-77
2023/06/16 06:43:53;;;;;;;;;;;22.40;51.30;;;23.04;37.04;98725.56;5015654;28;113858;-77
2023/06/16 06:46:24;;;;;;;;;;;22.50;51.60;;;23.09;36.64;98727.97;5022533;28;113920;-77
2023/06/16 06:48:51;;;;;;;;;;;22.50;51.50;;;23.12;36.93;98725.16;5014541;28;123683;-76
2023/06/16 06:51:19;;;;;;;;;;;22.50;51.50;;;23.19;36.53;98727.22;5011807;28;123957;-77
2023/06/16 06:53:46;;;;;;;;;;;22.60;51.60;;;23.25;36.76;98728.41;5026067;28;113950;-77
2023/06/16 06:56:14;;;;;;;;;;;22.70;51.50;;;23.33;36.49;98724.41;5010904;27;114326;-77
2023/06/16 06:58:41;;;;;;;;;;;22.70;51.40;;;23.42;36.61;98731.66;5015101;27;123825;-77
2023/06/16 07:01:07;;;;;;;;;;;22.80;51.40;;;23.47;36.39;98731.28;5023820;27;122668;-76
2023/06/16 07:03:33;;;;;;;;;;;22.80;51.40;;;23.51;36.86;98734.94;5018322;27;114377;-77
2023/06/16 07:05:59;;;;;;;;;;;22.90;51.60;;;23.56;36.50;98740.13;5016406;28;114041;-74
2023/06/16 07:08:28;;;;;;;;;;;22.90;51.50;;;23.64;36.47;98738.13;5021998;27;124861;-74
2023/06/16 07:10:54;;;;;;;;;;;23.00;51.50;;;23.65;36.50;98739.75;5032861;28;123529;-74
2023/06/16 07:13:21;;;;;;;;;;;23.10;51.50;;;23.65;36.36;98745.41;5018221;27;114485;-73
2023/06/16 07:15:47;;;;;;;;;;;23.00;51.40;;;23.62;36.47;98746.22;5015312;28;112724;-75
2023/06/16 07:18:13;;;;;;;;;;;23.00;51.40;;;23.65;36.42;98745.41;5027933;28;124200;-75
2023/06/16 07:20:40;;;;;;;;;;;23.00;51.30;;;23.66;36.50;98747.81;5019883;28;124028;-76
2023/06/16 07:23:06;;;;;;;;;;;23.00;51.30;;;23.67;36.29;98745.78;5028285;28;114313;-76
2023/06/16 07:25:36;;;;;;;;;;;23.10;51.30;;;23.71;36.33;98746.63;5015889;28;113607;-74
2023/06/16 07:28:04;;;;;;;;;;;23.10;51.40;;;23.78;36.14;98753.09;5032601;27;124400;-75
2023/06/16 07:30:31;;;;;;;;;;;23.20;51.70;;;23.84;36.15;98749.88;5032302;27;123225;-75
2023/06/16 07:32:57;;;;;;;;;;;23.20;51.00;;;23.95;35.87;98753.50;5026851;28;114320;-76
2023/06/16 07:35:23;;;;;;;;;;;23.30;51.00;;;24.01;35.71;98757.53;5024382;28;113503;-74
2023/06/16 07:37:50;;;;;;;;;;;23.40;50.80;;;24.09;35.82;98753.47;5025671;27;124235;-75
2023/06/16 07:40:16;;;;;;;;;;;23.50;50.70;;;24.17;35.53;98754.28;5013703;28;122970;-76
2023/06/16 07:42:45;;;;;;;;;;;23.60;50.60;;;24.24;35.38;98755.09;5029245;28;113716;-76
2023/06/16 07:45:17;;;;;;;;;;;23.70;50.30;;;24.33;35.18;98753.84;5015069;27;113885;-75
2023/06/16 07:47:45;;;;;;;;;;;23.70;50.00;;;24.39;34.62;98749.41;5012837;28;124457;-76
2023/06/16 07:50:13;;;;;;;;;;;23.80;49.50;;;24.39;32.64;98744.56;5014821;28;121966;-76
2023/06/16 07:52:42;;;;;;;;;;;23.80;46.90;;;24.38;31.72;98747.81;5021346;28;115348;-77
2023/06/16 07:55:10;;;;;;;;;;;23.60;45.10;;;24.38;31.66;98742.94;5028333;28;114590;-76
2023/06/16 07:57:38;;;;;;;;;;;23.90;45.50;;;24.44;31.69;98737.72;5021842;27;125269;-76
2023/06/16 08:00:08;;;;;;;;;;;23.90;45.50;;;24.50;31.64;98738.09;5013891;27;123929;-75
2023/06/16 08:02:35;;;;;;;;;;;24.00;45.40;;;24.55;31.34;98744.13;5025389;28;114384;-75
2023/06/16 08:05:01;;;;;;;;;;;24.00;44.80;;;24.60;30.96;98749.38;5027618;28;113973;-76
2023/06/16 08:07:29;;;;;;;;;;;24.10;44.50;;;24.67;31.01;98749.38;5021834;28;124084;-77
2023/06/16 08:09:56;;;;;;;;;;;24.10;44.50;;;24.76;30.81;98739.66;5030854;28;123773;-76
2023/06/16 08:12:22;;;;;;;;;;;24.20;44.40;;;24.84;30.23;98744.06;5025085;28;114610;-77
2023/06/16 08:14:48;;;;;;;;;;;24.30;44.00;;;24.89;29.73;98738.78;5027434;28;113758;-76
2023/06/16 08:17:15;;;;;;;;;;;24.30;43.10;;;24.95;29.57;98741.19;5023543;28;124140;-76
2023/06/16 08:19:41;;;;;;;;;;;24.40;42.80;;;25.00;29.29;98733.06;5023161;28;124605;-76
2023/06/16 08:22:10;;;;;;;;;;;24.40;42.60;;;25.05;29.49;98729.81;5012372;28;114221;-76
2023/06/16 08:24:37;;;;;;;;;;;24.50;42.70;;;25.09;28.82;98726.97;5017945;28;113960;-76
2023/06/16 08:27:04;;;;;;;;;;;24.50;42.20;;;25.09;28.06;98730.63;5018400;27;124271;-80
2023/06/16 08:29:30;;;;;;;;;;;24.60;41.00;;;25.08;27.67;98729.00;5020166;27;123813;-80
2023/06/16 08:31:57;;;;;;;;;;;24.50;40.10;;;25.09;27.41;98724.97;5016732;28;115089;-75
2023/06/16 08:34:23;;;;;;;;;;;24.50;39.80;;;25.12;27.73;98729.78;5028236;28;113933;-74
2023/06/16 08:36:50;;;;;;;;;;;24.60;40.20;;;25.18;27.36;98726.56;5017705;28;124117;-77
2023/06/16 08:39:16;;;;;;;;;;;24.70;40.10;;;25.25;27.12;98726.50;5015359;28;123845;-76
2023/06/16 08:41:45;;;;;;;;;;;24.70;39.40;;;25.33;26.92;98730.88;5021230;28;115527;-78
2023/06/16 08:44:19;;;;;;;;;;;24.80;39.20;;;25.39;26.55;98720.78;5025414;28;114712;-72
2023/06/16 08:46:46;;;;;;;;;;;24.90;38.80;;;25.45;25.78;98724.75;5016315;27;124867;-76
2023/06/16 08:49:15;;;;;;;;;;;24.90;37.70;;;25.49;25.67;98721.91;5011807;28;125062;-76
2023/06/16 08:51:50;;;;;;;;;;;24.90;38.00;;;25.55;25.78;98734.41;5019537;28;114926;-76
2023/06/16 08:54:19;;;;;;;;;;;25.00;37.80;;;25.61;25.96;98731.94;5019003;28;112898;-75
2023/06/16 08:56:46;;;;;;;;;;;25.10;37.80;;;25.65;25.05;98727.03;5012222;27;124770;-75
2023/06/16 08:59:14;;;;;;;;;;;25.10;36.20;;;25.63;25.14;98720.97;5023657;27;123784;-76
2023/06/16 09:01:41;;;;;;;;;;;25.10;36.10;;;25.64;24.84;98719.78;5000065;28;113530;-76
2023/06/16 09:04:08;;;;;;;;;;;25.20;36.00;;;25.63;25.03;98718.16;5019085;28;113971;-76
2023/06/16 09:06:39;;;;;;;;;;;25.20;35.90;;;25.67;24.39;98718.94;5020538;28;123704;-76
2023/06/16 09:09:05;;;;;;;;;;;25.30;35.40;;;25.69;24.20;98722.16;5021895;28;125379;-76
2023/06/16 09:11:32;;;;;;;;;;;25.30;35.60;;;25.68;23.84;98714.88;5024621;27;114546;-75
2023/06/16 09:14:08;;;;;;;;;;;25.30;34.20;;;25.66;24.34;98711.69;5024905;28;113895;-75
2023/06/16 09:16:35;;;;;;;;;;;25.30;35.00;;;25.65;24.01;98715.72;5020124;28;124396;-76
2023/06/16 09:19:09;;;;;;;;;;;25.30;35.00;;;25.63;24.33;98718.97;5021068;28;122259;-75
2023/06/16 09:21:37;;;;;;;;;;;25.30;34.80;;;25.64;24.48;98719.78;5016433;28;114578;-75
2023/06/16 09:24:04;;;;;;;;;;;25.30;35.00;;;25.66;23.91;98712.50;5020421;28;113142;-75
2023/06/16 09:26:35;;;;;;;;;;;25.30;34.60;;;25.63;23.65;98718.16;5016384;27;123021;-76
2023/06/16 09:29:30;;;;;;;;;;;25.30;33.90;;;25.63;23.86;98706.84;4999480;28;123301;-76
2023/06/16 09:32:08;;;;;;;;;;;25.30;34.40;;;25.70;24.31;98701.94;5028825;27;115796;-78
2023/06/16 09:34:39;;;;;;;;;;;25.30;34.70;;;25.78;24.28;98702.69;5007900;28;113887;-79
2023/06/16 09:37:06;;;;;;;;;;;25.40;34.80;;;25.84;24.00;98701.03;5020040;28;124329;-76
2023/06/16 09:39:37;;;;;;;;;;;25.40;34.80;;;25.91;24.00;98698.13;5028935;27;123443;-76
2023/06/16 09:42:04;;;;;;;;;;;25.50;34.90;;;25.94;24.27;98700.13;5020512;27;114642;-76
2023/06/16 09:44:31;;;;;;;;;;;25.50;34.60;;;25.94;23.85;98705.78;5010276;27;111675;-75
2023/06/16 09:47:00;;;;;;;;;;;25.50;34.50;;;25.97;23.50;98693.63;5007469;27;125001;-77
2023/06/16 09:49:27;;;;;;;;;;;25.50;34.50;;;25.96;23.78;98691.22;5015756;28;123927;-76
2023/06/16 09:51:58;;;;;;;;;;;25.50;34.30;;;25.95;23.66;98689.59;5021749;28;115315;-76
2023/06/16 09:54:26;;;;;;;;;;;25.50;34.40;;;25.94;23.73;98683.13;5026426;28;113987;-76
2023/06/16 09:56:56;;;;;;;;;;;25.50;34.20;;;25.98;23.95;98683.94;5021155;28;124606;-76
2023/06/16 09:59:25;;;;;;;;;;;25.60;34.40;;;26.00;23.71;98691.97;5024455;28;124285;-74
2023/06/16 10:01:56;;;;;;;;;;;25.70;34.10;;;26.04;23.29;98677.81;5023766;28;114216;-79
2023/06/16 10:04:23;;;;;;;;;;;25.70;33.80;;;26.06;23.06;98683.84;5016483;27;114553;-78
2023/06/16 10:07:02;;;;;;;;;;;25.70;33.20;;;26.09;22.89;98677.34;5011221;28;123491;-81
2023/06/16 10:09:35;;;;;;;;;;;25.70;33.00;;;26.13;23.26;98683.78;5014568;28;124792;-80
2023/06/16 10:12:02;;;;;;;;;;;25.70;33.30;;;26.17;23.24;98684.56;5020100;27;114986;-76
2023/06/16 10:14:31;;;;;;;;;;;25.70;33.30;;;26.20;23.42;98695.03;5028530;28;113194;-76
2023/06/16 10:16:58;;;;;;;;;;;25.80;33.70;;;26.23;23.03;98682.88;5029104;28;124331;-78
2023/06/16 10:19:26;;;;;;;;;;;25.80;33.00;;;26.17;23.17;98679.69;5031899;27;123649;-77
2023/06/16 10:21:53;;;;;;;;;;;25.80;33.10;;;26.17;23.46;98681.72;5028827;28;115164;-76
2023/06/16 10:24:20;;;;;;;;;;;25.80;33.40;;;26.17;23.06;98691.00;5018441;28;114704;-76
2023/06/16 10:26:46;;;;;;;;;;;25.90;33.30;;;26.18;23.36;98686.16;5028052;28;125676;-76
2023/06/16 10:29:17;;;;;;;;;;;25.80;33.20;;;26.19;23.25;98677.25;5030224;27;123749;-76
2023/06/16 10:31:44;;;;;;;;;;;25.90;33.80;;;26.18;23.04;98674.81;5028289;27;113268;-76
2023/06/16 10:34:21;;;;;;;;;;;25.90;33.50;;;26.18;23.23;98672.78;5017575;27;113691;-75
2023/06/16 10:36:49;;;;;;;;;;;25.90;33.20;;;26.22;23.43;98664.25;5027758;28;124484;-76
2023/06/16 10:39:16;;;;;;;;;;;25.90;33.70;;;26.27;24.02;98669.44;5026590;28;123678;-75
2023/06/16 10:41:57;;;;;;;;;;;25.80;34.20;;;26.32;23.80;98677.50;5025533;27;113652;-76
2023/06/16 10:44:29;;;;;;;;;;;25.80;34.20;;;26.38;23.00;98658.81;5010347;28;112665;-76
2023/06/16 10:47:06;;;;;;;;;;;25.90;33.80;;;26.36;22.71;98671.81;5023269;28;124363;-76
2023/06/16 10:49:33;;;;;;;;;;;25.90;32.70;;;26.44;22.52;98679.00;5029688;27;122709;-75
2023/06/16 10:52:02;;;;;;;;;;;26.00;32.60;;;26.50;22.19;98676.50;5031866;28;114546;-79
2023/06/16 10:54:39;;;;;;;;;;;26.00;32.20;;;26.52;22.00;98679.72;5024668;28;114289;-85
2023/06/16 10:57:07;;;;;;;;;;;26.10;32.20;;;26.50;22.10;98676.50;5029303;28;124172;-84
2023/06/16 11:00:14;;;;;;;;;;;26.10;31.90;;;26.45;22.80;98683.41;5015852;27;123856;-84
2023/06/16 11:02:51;;;;;;;;;;;26.10;32.90;;;26.49;22.75;98681.38;5006255;27;114577;-84
2023/06/16 11:05:22;;;;;;;;;;;26.10;32.60;;;26.56;22.12;98678.44;5022151;27;112116;-84
2023/06/16 11:08:08;;;;;;;;;;;26.20;31.80;;;26.58;21.43;98669.53;5025358;27;124382;-84
2023/06/16 11:11:08;;;;;;;;;;;25.70;30.60;;;26.59;22.07;98659.81;5035330;27;124016;-84
2023/06/16 11:13:38;;;;;;;;;;;26.30;31.20;;;26.61;21.69;98677.19;5023504;27;114315;-83
2023/06/16 11:16:04;;;;;;;;;;;26.30;31.30;;;26.63;21.65;98677.56;5011578;27;114748;-83